createdAt,value
2022-12-28T00:00:00.448Z,90.88
2022-12-28T00:01:09.686Z,90.88
2022-12-28T00:02:00.481Z,90.88
2022-12-28T00:03:00.492Z,90.82
2022-12-28T00:04:01.999Z,90.82
2022-12-28T00:05:00.457Z,90.82
2022-12-28T00:06:01.257Z,90.82
2022-12-28T00:07:00.460Z,90.82
2022-12-28T00:08:00.450Z,90.87
2022-12-28T00:09:00.595Z,90.87
2022-12-28T00:10:00.452Z,90.87
2022-12-28T00:11:06.692Z,90.87
2022-12-28T00:12:00.464Z,90.87
2022-12-28T00:13:00.445Z,91.08
2022-12-28T00:14:00.891Z,91.08
2022-12-28T00:15:00.517Z,91.08
2022-12-28T00:16:10.372Z,91.08
2022-12-28T00:17:00.494Z,91.08
2022-12-28T00:18:00.452Z,91.46
2022-12-28T00:19:01.520Z,91.46
2022-12-28T00:20:00.484Z,91.46
2022-12-28T00:21:01.131Z,91.46
2022-12-28T00:22:00.453Z,91.46
2022-12-28T00:23:03.581Z,91.09
2022-12-28T00:24:00.949Z,91.09
2022-12-28T00:25:00.463Z,91.09
2022-12-28T00:26:08.825Z,91.09
2022-12-28T00:27:00.457Z,91.09
2022-12-28T00:28:00.804Z,91.38
2022-12-28T00:29:05.342Z,91.38
2022-12-28T00:30:00.468Z,91.38
2022-12-28T00:31:00.815Z,91.38
2022-12-28T00:32:00.546Z,91.38
2022-12-28T00:33:00.445Z,91.34
2022-12-28T00:34:01.200Z,91.34
2022-12-28T00:35:00.455Z,91.34
2022-12-28T00:36:00.996Z,91.34
2022-12-28T00:37:08.836Z,91.34
2022-12-28T00:38:00.452Z,90.95
2022-12-28T00:39:00.539Z,90.95
2022-12-28T00:40:00.478Z,90.95
2022-12-28T00:41:00.471Z,90.95
2022-12-28T00:42:00.499Z,90.95
2022-12-28T00:43:00.495Z,91.02
2022-12-28T00:44:00.459Z,91.02
2022-12-28T00:45:00.455Z,91.02
2022-12-28T00:46:01.306Z,91.02
2022-12-28T00:47:00.458Z,91.02
2022-12-28T00:48:00.493Z,90.60
2022-12-28T00:49:00.445Z,90.60
2022-12-28T00:50:00.477Z,90.60
2022-12-28T00:51:02.955Z,90.60
2022-12-28T00:52:00.459Z,90.60
2022-12-28T00:53:00.462Z,89.87
2022-12-28T00:54:00.457Z,89.87
2022-12-28T00:55:00.488Z,89.87
2022-12-28T00:56:05.033Z,89.87
2022-12-28T00:57:00.454Z,89.87
2022-12-28T00:58:00.894Z,89.38
2022-12-28T00:59:00.443Z,89.38
2022-12-28T01:00:00.493Z,89.38
2022-12-28T01:01:00.786Z,89.38
2022-12-28T01:02:00.643Z,89.38
2022-12-28T01:03:00.574Z,88.53
2022-12-28T01:04:00.567Z,88.53
2022-12-28T01:05:00.512Z,88.53
2022-12-28T01:06:04.015Z,88.53
2022-12-28T01:07:00.443Z,88.53
2022-12-28T01:08:00.474Z,87.55
2022-12-28T01:09:00.569Z,87.55
2022-12-28T01:10:00.542Z,87.55
2022-12-28T01:11:05.095Z,87.55
2022-12-28T01:12:00.472Z,87.55
2022-12-28T01:13:00.436Z,86.90
2022-12-28T01:14:01.007Z,86.90
2022-12-28T01:15:00.793Z,86.90
2022-12-28T01:16:08.136Z,86.90
2022-12-28T01:17:00.473Z,86.90
2022-12-28T01:18:00.479Z,85.72
2022-12-28T01:19:01.497Z,85.72
2022-12-28T01:20:00.535Z,85.72
2022-12-28T01:21:06.225Z,85.72
2022-12-28T01:22:00.456Z,85.72
2022-12-28T01:23:00.448Z,85.31
2022-12-28T01:24:02.258Z,85.31
2022-12-28T01:25:00.452Z,85.31
2022-12-28T01:26:01.489Z,85.31
2022-12-28T01:27:00.525Z,85.31
2022-12-28T01:28:00.456Z,85.01
2022-12-28T01:29:00.564Z,85.01
2022-12-28T01:30:00.461Z,85.01
2022-12-28T01:31:02.247Z,85.01
2022-12-28T01:32:00.502Z,85.01
2022-12-28T01:33:00.450Z,84.36
2022-12-28T01:34:01.308Z,84.36
2022-12-28T01:35:00.439Z,84.36
2022-12-28T01:36:08.656Z,84.36
2022-12-28T01:37:00.463Z,84.36
2022-12-28T01:38:00.481Z,84.28
2022-12-28T01:39:02.331Z,84.28
2022-12-28T01:40:00.494Z,84.28
2022-12-28T01:41:00.501Z,84.28
2022-12-28T01:42:00.511Z,84.28
2022-12-28T01:43:00.462Z,84.53
2022-12-28T01:44:01.624Z,84.53
2022-12-28T01:45:10.383Z,84.53
2022-12-28T01:46:00.526Z,84.53
2022-12-28T01:47:02.466Z,84.53
2022-12-28T01:48:00.573Z,84.66
2022-12-28T01:49:03.916Z,84.66
2022-12-28T01:50:04.515Z,84.66
2022-12-28T01:51:00.524Z,84.66
2022-12-28T01:52:05.205Z,84.66
2022-12-28T01:53:02.778Z,84.55
2022-12-28T01:54:01.687Z,84.55
2022-12-28T01:55:10.385Z,84.55
2022-12-28T01:56:00.604Z,84.55
2022-12-28T01:57:01.216Z,84.55
2022-12-28T01:58:03.522Z,84.89
2022-12-28T01:59:00.477Z,84.89
2022-12-28T02:00:03.009Z,84.89
2022-12-28T02:01:00.662Z,84.89
2022-12-28T02:02:00.745Z,84.89
2022-12-28T02:03:01.539Z,84.98
2022-12-28T02:04:00.552Z,84.98
2022-12-28T02:05:00.721Z,84.98
2022-12-28T02:06:02.818Z,84.98
2022-12-28T02:07:00.497Z,84.98
2022-12-28T02:08:04.801Z,84.99
2022-12-28T02:09:10.387Z,84.99
2022-12-28T02:10:43.733Z,84.99
2022-12-28T02:11:00.532Z,84.99
2022-12-28T02:12:00.717Z,84.99
2022-12-28T02:13:01.178Z,85.01
2022-12-28T02:14:00.767Z,85.01
2022-12-28T02:15:00.783Z,85.01
2022-12-28T02:16:00.442Z,85.01
2022-12-28T02:17:00.588Z,85.01
2022-12-28T02:18:01.113Z,84.78
2022-12-28T02:19:00.474Z,84.78
2022-12-28T02:20:01.261Z,84.78
2022-12-28T02:21:00.432Z,84.78
2022-12-28T02:22:10.400Z,84.78
2022-12-28T02:23:10.405Z,84.37
2022-12-28T02:24:01.468Z,84.37
2022-12-28T02:25:12.710Z,84.37
2022-12-28T02:26:03.723Z,84.37
2022-12-28T02:27:05.793Z,84.37
2022-12-28T02:28:07.873Z,84.32
2022-12-28T02:29:10.448Z,84.32
2022-12-28T02:30:01.466Z,84.32
2022-12-28T02:31:05.454Z,84.32
2022-12-28T02:32:07.085Z,84.32
2022-12-28T02:33:00.434Z,83.88
2022-12-28T02:34:00.437Z,83.88
2022-12-28T02:35:00.435Z,83.88
2022-12-28T02:36:02.865Z,83.88
2022-12-28T02:37:03.577Z,83.88
2022-12-28T02:38:04.538Z,83.72
2022-12-28T02:39:04.354Z,83.72
2022-12-28T02:40:05.312Z,83.72
2022-12-28T02:41:04.062Z,83.72
2022-12-28T02:42:02.440Z,83.72
2022-12-28T02:43:01.162Z,83.84
2022-12-28T02:44:00.813Z,83.84
2022-12-28T02:45:00.452Z,83.84
2022-12-28T02:46:08.594Z,83.84
2022-12-28T02:47:00.465Z,83.84
2022-12-28T02:48:00.500Z,83.74
2022-12-28T02:49:07.539Z,83.74
2022-12-28T02:50:02.797Z,83.74
2022-12-28T02:51:10.404Z,83.74
2022-12-28T02:52:08.123Z,83.74
2022-12-28T02:53:07.127Z,83.55
2022-12-28T02:54:09.840Z,83.55
2022-12-28T02:55:01.462Z,83.55
2022-12-28T02:56:00.448Z,83.55
2022-12-28T02:57:04.022Z,83.55
2022-12-28T02:58:09.850Z,83.63
2022-12-28T02:59:10.451Z,83.63
2022-12-28T03:00:06.004Z,83.63
2022-12-28T03:01:10.591Z,83.63
2022-12-28T03:02:03.867Z,83.63
2022-12-28T03:03:00.537Z,83.52
2022-12-28T03:04:06.485Z,83.52
2022-12-28T03:05:06.515Z,83.52
2022-12-28T03:06:14.661Z,83.52
2022-12-28T03:07:03.729Z,83.52
2022-12-28T03:08:07.124Z,83.60
2022-12-28T03:09:08.669Z,83.60
2022-12-28T03:10:10.430Z,83.60
2022-12-28T03:11:04.067Z,83.60
2022-12-28T03:12:05.470Z,83.60
2022-12-28T03:13:01.485Z,83.66
2022-12-28T03:14:02.545Z,83.66
2022-12-28T03:15:03.736Z,83.66
2022-12-28T03:16:04.726Z,83.66
2022-12-28T03:17:02.017Z,83.66
2022-12-28T03:18:04.328Z,83.58
2022-12-28T03:19:03.915Z,83.58
2022-12-28T03:20:03.917Z,83.58
2022-12-28T03:21:03.976Z,83.58
2022-12-28T03:22:00.578Z,83.58
2022-12-28T03:23:04.117Z,83.53
2022-12-28T03:24:01.537Z,83.53
2022-12-28T03:25:03.074Z,83.53
2022-12-28T03:26:01.853Z,83.53
2022-12-28T03:27:01.838Z,83.53
2022-12-28T03:28:04.046Z,83.46
2022-12-28T03:29:01.872Z,83.46
2022-12-28T03:30:06.945Z,83.46
2022-12-28T03:31:03.568Z,83.46
2022-12-28T03:32:00.492Z,83.46
2022-12-28T03:33:00.931Z,83.36
2022-12-28T03:34:01.061Z,83.36
2022-12-28T03:35:00.647Z,83.36
2022-12-28T03:36:07.507Z,83.36
2022-12-28T03:37:06.205Z,83.36
2022-12-28T03:38:01.965Z,83.25
2022-12-28T03:39:00.445Z,83.25
2022-12-28T03:40:10.367Z,83.25
2022-12-28T03:41:04.898Z,83.25
2022-12-28T03:42:05.775Z,83.25
2022-12-28T03:43:05.692Z,83.33
2022-12-28T03:44:04.436Z,83.33
2022-12-28T03:45:08.271Z,83.33
2022-12-28T03:46:03.958Z,83.33
2022-12-28T03:47:07.054Z,83.33
2022-12-28T03:48:01.613Z,83.37
2022-12-28T03:49:00.808Z,83.37
2022-12-28T03:50:00.624Z,83.37
2022-12-28T03:51:00.442Z,83.37
2022-12-28T03:52:01.010Z,83.37
2022-12-28T03:53:00.558Z,83.54
2022-12-28T03:54:00.536Z,83.54
2022-12-28T03:55:00.591Z,83.54
2022-12-28T03:56:04.816Z,83.54
2022-12-28T03:57:00.502Z,83.54
2022-12-28T03:58:00.468Z,83.60
2022-12-28T03:59:00.479Z,83.60
2022-12-28T04:00:00.473Z,83.60
2022-12-28T04:01:00.529Z,83.60
2022-12-28T04:02:00.661Z,83.60
2022-12-28T04:03:00.564Z,83.71
2022-12-28T04:04:00.446Z,83.71
2022-12-28T04:05:00.463Z,83.71
2022-12-28T04:06:00.646Z,83.71
2022-12-28T04:07:00.443Z,83.71
2022-12-28T04:08:00.462Z,83.93
2022-12-28T04:09:00.677Z,83.93
2022-12-28T04:10:00.460Z,83.93
2022-12-28T04:11:00.928Z,83.93
2022-12-28T04:12:00.442Z,83.93
2022-12-28T04:13:00.491Z,83.95
2022-12-28T04:14:06.853Z,83.95
2022-12-28T04:15:01.152Z,83.95
2022-12-28T04:16:03.823Z,83.95
2022-12-28T04:17:00.448Z,83.95
2022-12-28T04:18:00.680Z,83.98
2022-12-28T04:19:00.482Z,83.98
2022-12-28T04:20:00.613Z,83.98
2022-12-28T04:21:00.815Z,83.98
2022-12-28T04:22:00.628Z,83.98
2022-12-28T04:23:00.450Z,84.23
2022-12-28T04:24:00.465Z,84.23
2022-12-28T04:25:00.510Z,84.23
2022-12-28T04:26:03.313Z,84.23
2022-12-28T04:27:00.782Z,84.23
2022-12-28T04:28:00.447Z,84.47
2022-12-28T04:29:00.503Z,84.47
2022-12-28T04:30:00.473Z,84.47
2022-12-28T04:31:01.218Z,84.47
2022-12-28T04:32:00.452Z,84.47
2022-12-28T04:33:00.449Z,84.27
2022-12-28T04:34:00.538Z,84.27
2022-12-28T04:35:00.501Z,84.27
2022-12-28T04:36:04.710Z,84.27
2022-12-28T04:37:00.449Z,84.27
2022-12-28T04:38:00.440Z,84.41
2022-12-28T04:39:00.464Z,84.41
2022-12-28T04:40:00.448Z,84.41
2022-12-28T04:41:01.131Z,84.41
2022-12-28T04:42:00.458Z,84.41
2022-12-28T04:43:00.536Z,84.34
2022-12-28T04:44:00.447Z,84.34
2022-12-28T04:45:00.484Z,84.34
2022-12-28T04:46:02.066Z,84.34
2022-12-28T04:47:00.565Z,84.34
2022-12-28T04:48:00.467Z,84.49
2022-12-28T04:49:00.721Z,84.49
2022-12-28T04:50:00.470Z,84.49
2022-12-28T04:51:10.381Z,84.49
2022-12-28T04:52:00.457Z,84.49
2022-12-28T04:53:00.444Z,84.62
2022-12-28T04:54:00.487Z,84.62
2022-12-28T04:55:00.457Z,84.62
2022-12-28T04:56:03.132Z,84.62
2022-12-28T04:57:00.457Z,84.62
2022-12-28T04:58:00.449Z,84.79
2022-12-28T04:59:00.460Z,84.79
2022-12-28T05:00:00.452Z,84.79
2022-12-28T05:01:01.434Z,84.79
2022-12-28T05:02:00.744Z,84.79
2022-12-28T05:03:00.777Z,85.26
2022-12-28T05:04:00.505Z,85.26
2022-12-28T05:05:00.478Z,85.26
2022-12-28T05:06:02.160Z,85.26
2022-12-28T05:07:00.499Z,85.26
2022-12-28T05:08:00.884Z,85.53
2022-12-28T05:09:00.501Z,85.53
2022-12-28T05:10:00.482Z,85.53
2022-12-28T05:11:00.816Z,85.53
2022-12-28T05:12:00.479Z,85.53
2022-12-28T05:13:00.462Z,85.76
2022-12-28T05:14:00.449Z,85.76
2022-12-28T05:15:00.491Z,85.76
2022-12-28T05:16:00.964Z,85.76
2022-12-28T05:17:00.444Z,85.76
2022-12-28T05:18:00.498Z,86.33
2022-12-28T05:19:00.459Z,86.33
2022-12-28T05:20:00.598Z,86.33
2022-12-28T05:21:01.468Z,86.33
2022-12-28T05:22:00.505Z,86.33
2022-12-28T05:23:00.443Z,86.75
2022-12-28T05:24:00.465Z,86.75
2022-12-28T05:25:00.443Z,86.75
2022-12-28T05:26:00.538Z,86.75
2022-12-28T05:27:00.488Z,86.75
2022-12-28T05:28:00.456Z,87.23
2022-12-28T05:29:00.796Z,87.23
2022-12-28T05:30:00.459Z,87.23
2022-12-28T05:31:01.773Z,87.23
2022-12-28T05:32:00.441Z,87.23
2022-12-28T05:33:00.499Z,87.90
2022-12-28T05:34:00.530Z,87.90
2022-12-28T05:35:00.442Z,87.90
2022-12-28T05:36:02.466Z,87.90
2022-12-28T05:37:00.559Z,87.90
2022-12-28T05:38:00.452Z,88.09
2022-12-28T05:39:00.526Z,88.09
2022-12-28T05:40:00.464Z,88.09
2022-12-28T05:41:04.377Z,88.09
2022-12-28T05:42:00.453Z,88.09
2022-12-28T05:43:00.475Z,88.04
2022-12-28T05:44:00.457Z,88.04
2022-12-28T05:45:00.483Z,88.04
2022-12-28T05:46:01.479Z,88.04
2022-12-28T05:47:00.471Z,88.04
2022-12-28T05:48:00.512Z,88.18
2022-12-28T05:49:00.759Z,88.18
2022-12-28T05:50:00.440Z,88.18
2022-12-28T05:51:01.729Z,88.18
2022-12-28T05:52:00.439Z,88.18
2022-12-28T05:53:00.450Z,88.55
2022-12-28T05:54:01.499Z,88.55
2022-12-28T05:55:00.450Z,88.55
2022-12-28T05:56:07.248Z,88.55
2022-12-28T05:57:00.469Z,88.55
2022-12-28T05:58:00.472Z,88.78
2022-12-28T05:59:01.533Z,88.78
2022-12-28T06:00:00.515Z,88.78
2022-12-28T06:01:03.725Z,88.78
2022-12-28T06:02:00.754Z,88.78
2022-12-28T06:03:00.567Z,88.97
2022-12-28T06:04:01.669Z,88.97
2022-12-28T06:05:00.457Z,88.97
2022-12-28T06:06:10.384Z,88.97
2022-12-28T06:07:00.455Z,88.97
2022-12-28T06:08:01.169Z,89.11
2022-12-28T06:09:00.459Z,89.11
2022-12-28T06:10:00.527Z,89.11
2022-12-28T06:11:04.863Z,89.11
2022-12-28T06:12:00.465Z,89.11
2022-12-28T06:13:00.447Z,89.32
2022-12-28T06:14:00.509Z,89.32
2022-12-28T06:15:00.463Z,89.32
2022-12-28T06:16:09.604Z,89.32
2022-12-28T06:17:00.521Z,89.32
2022-12-28T06:18:00.471Z,89.23
2022-12-28T06:19:04.746Z,89.23
2022-12-28T06:20:00.460Z,89.23
2022-12-28T06:21:02.019Z,89.23
2022-12-28T06:22:00.451Z,89.23
2022-12-28T06:23:00.449Z,89.28
2022-12-28T06:24:01.124Z,89.28
2022-12-28T06:25:00.470Z,89.28
2022-12-28T06:26:01.428Z,89.28
2022-12-28T06:27:00.464Z,89.28
2022-12-28T06:28:00.456Z,89.41
2022-12-28T06:29:00.622Z,89.41
2022-12-28T06:30:00.466Z,89.41
2022-12-28T06:31:02.781Z,89.41
2022-12-28T06:32:00.553Z,89.41
2022-12-28T06:33:00.508Z,90.10
2022-12-28T06:34:01.287Z,90.10
2022-12-28T06:35:00.460Z,90.10
2022-12-28T06:36:00.901Z,90.10
2022-12-28T06:37:00.461Z,90.10
2022-12-28T06:38:00.480Z,90.44
2022-12-28T06:39:01.476Z,90.44
2022-12-28T06:40:00.523Z,90.44
2022-12-28T06:41:13.809Z,90.44
2022-12-28T06:42:00.453Z,90.44
2022-12-28T06:43:00.463Z,90.46
2022-12-28T06:44:00.620Z,90.46
2022-12-28T06:45:00.488Z,90.46
2022-12-28T06:46:00.523Z,90.46
2022-12-28T06:47:00.447Z,90.46
2022-12-28T06:48:00.456Z,90.39
2022-12-28T06:49:00.470Z,90.39
2022-12-28T06:50:00.597Z,90.39
2022-12-28T06:51:01.455Z,90.39
2022-12-28T06:52:00.452Z,90.39
2022-12-28T06:55:00.390Z,90.65
2022-12-28T06:56:01.651Z,90.65
2022-12-28T06:57:00.348Z,90.65
2022-12-28T06:58:00.350Z,91.24
2022-12-28T06:59:03.884Z,91.24
2022-12-28T07:00:00.379Z,91.24
2022-12-28T07:01:08.796Z,91.24
2022-12-28T07:02:00.447Z,91.24
2022-12-28T07:03:00.412Z,91.57
2022-12-28T07:04:01.034Z,91.57
2022-12-28T07:05:00.345Z,91.57
2022-12-28T07:06:00.876Z,91.57
2022-12-28T07:07:00.349Z,91.57
2022-12-28T07:08:00.352Z,91.72
2022-12-28T07:09:02.392Z,91.72
2022-12-28T07:10:00.345Z,91.72
2022-12-28T07:11:01.164Z,91.72
2022-12-28T07:12:00.339Z,91.72
2022-12-28T07:13:00.357Z,91.90
2022-12-28T07:14:00.427Z,91.90
2022-12-28T07:15:00.355Z,91.90
2022-12-28T07:16:01.382Z,91.90
2022-12-28T07:17:00.331Z,91.90
2022-12-28T07:18:00.402Z,91.91
2022-12-28T07:19:00.600Z,91.91
2022-12-28T07:20:00.353Z,91.91
2022-12-28T07:21:01.372Z,91.91
2022-12-28T07:22:00.330Z,91.91
2022-12-28T07:23:00.344Z,91.64
2022-12-28T07:24:00.887Z,91.64
2022-12-28T07:25:00.344Z,91.64
2022-12-28T07:26:05.045Z,91.64
2022-12-28T07:27:00.340Z,91.64
2022-12-28T07:28:00.332Z,92.21
2022-12-28T07:29:01.485Z,92.21
2022-12-28T07:30:00.485Z,92.21
2022-12-28T07:31:03.755Z,92.21
2022-12-28T07:32:00.363Z,92.21
2022-12-28T07:33:00.350Z,92.07
2022-12-28T07:34:00.369Z,92.07
2022-12-28T07:35:00.359Z,92.07
2022-12-28T07:36:00.750Z,92.07
2022-12-28T07:37:00.348Z,92.07
2022-12-28T07:38:00.374Z,92.18
2022-12-28T07:39:00.441Z,92.18
2022-12-28T07:40:00.357Z,92.18
2022-12-28T07:41:01.532Z,92.18
2022-12-28T07:42:00.336Z,92.18
2022-12-28T07:43:00.386Z,92.68
2022-12-28T07:44:00.904Z,92.68
2022-12-28T07:45:00.375Z,92.68
2022-12-28T07:46:04.716Z,92.68
2022-12-28T07:47:00.356Z,92.68
2022-12-28T07:48:00.331Z,92.52
2022-12-28T07:49:00.376Z,92.52
2022-12-28T07:50:00.333Z,92.52
2022-12-28T07:51:10.303Z,92.52
2022-12-28T07:52:00.335Z,92.52
2022-12-28T07:53:00.597Z,92.40
2022-12-28T07:54:00.715Z,92.40
2022-12-28T07:55:00.334Z,92.40
2022-12-28T07:56:00.367Z,92.40
2022-12-28T07:57:00.347Z,92.40
2022-12-28T07:58:00.366Z,92.01
2022-12-28T07:59:01.907Z,92.01
2022-12-28T08:00:00.551Z,92.01
2022-12-28T08:01:07.863Z,92.01
2022-12-28T08:02:00.456Z,92.01
2022-12-28T08:03:00.342Z,92.52
2022-12-28T08:04:01.433Z,92.52
2022-12-28T08:05:00.446Z,92.52
2022-12-28T08:06:02.664Z,92.52
2022-12-28T08:07:00.349Z,92.52
2022-12-28T08:08:03.718Z,92.14
2022-12-28T08:09:00.666Z,92.14
2022-12-28T08:10:00.329Z,92.14
2022-12-28T08:11:01.288Z,92.14
2022-12-28T08:12:00.346Z,92.14
2022-12-28T08:13:00.407Z,92.52
2022-12-28T08:14:01.085Z,92.52
2022-12-28T08:15:00.346Z,92.52
2022-12-28T08:16:00.462Z,92.52
2022-12-28T08:17:00.352Z,92.52
2022-12-28T08:18:00.336Z,92.14
2022-12-28T08:19:00.355Z,92.14
2022-12-28T08:20:00.363Z,92.14
2022-12-28T08:21:01.630Z,92.14
2022-12-28T08:22:00.332Z,92.14
2022-12-28T08:23:00.362Z,92.12
2022-12-28T08:24:01.084Z,92.12
2022-12-28T08:25:00.342Z,92.12
2022-12-28T08:26:10.250Z,92.12
2022-12-28T08:27:00.349Z,92.12
2022-12-28T08:28:00.340Z,92.00
2022-12-28T08:29:02.230Z,92.00
2022-12-28T08:30:00.372Z,92.00
2022-12-28T08:31:04.772Z,92.00
2022-12-28T08:32:00.356Z,92.00
2022-12-28T08:33:00.341Z,91.83
2022-12-28T08:34:01.053Z,91.83
2022-12-28T08:35:00.338Z,91.83
2022-12-28T08:36:00.347Z,91.83
2022-12-28T08:37:00.363Z,91.83
2022-12-28T08:38:00.348Z,91.46
2022-12-28T08:39:00.475Z,91.46
2022-12-28T08:40:00.343Z,91.46
2022-12-28T08:41:01.403Z,91.46
2022-12-28T08:42:00.350Z,91.46
2022-12-28T08:43:00.894Z,91.26
2022-12-28T08:44:00.392Z,91.26
2022-12-28T08:45:00.345Z,91.26
2022-12-28T08:46:02.410Z,91.26
2022-12-28T08:47:00.562Z,91.26
2022-12-28T08:48:00.342Z,91.21
2022-12-28T08:49:00.927Z,91.21
2022-12-28T08:50:00.340Z,91.21
2022-12-28T08:51:01.565Z,91.21
2022-12-28T08:52:00.329Z,91.21
2022-12-28T08:53:00.365Z,90.73
2022-12-28T08:54:01.023Z,90.73
2022-12-28T08:55:00.362Z,90.73
2022-12-28T08:56:08.041Z,90.73
2022-12-28T08:57:00.352Z,90.73
2022-12-28T08:58:00.331Z,90.37
2022-12-28T08:59:00.402Z,90.37
2022-12-28T09:00:00.389Z,90.37
2022-12-28T09:01:05.485Z,90.37
2022-12-28T09:02:00.437Z,90.37
2022-12-28T09:03:00.505Z,90.22
2022-12-28T09:04:00.636Z,90.22
2022-12-28T09:05:00.391Z,90.22
2022-12-28T09:06:02.207Z,90.22
2022-12-28T09:07:00.339Z,90.22
2022-12-28T09:08:00.342Z,89.76
2022-12-28T09:09:06.807Z,89.76
2022-12-28T09:10:00.371Z,89.76
2022-12-28T09:11:01.207Z,89.76
2022-12-28T09:12:00.372Z,89.76
2022-12-28T09:13:00.386Z,89.73
2022-12-28T09:14:00.889Z,89.73
2022-12-28T09:15:00.354Z,89.73
2022-12-28T09:16:01.959Z,89.73
2022-12-28T09:17:00.333Z,89.73
2022-12-28T09:18:00.338Z,89.51
2022-12-28T09:19:01.340Z,89.51
2022-12-28T09:20:00.343Z,89.51
2022-12-28T09:21:10.323Z,89.51
2022-12-28T09:22:00.366Z,89.51
2022-12-28T09:23:00.372Z,89.50
2022-12-28T09:24:00.350Z,89.50
2022-12-28T09:25:00.353Z,89.50
2022-12-28T09:26:09.548Z,89.50
2022-12-28T09:27:00.351Z,89.50
2022-12-28T09:28:00.324Z,89.30
2022-12-28T09:29:01.648Z,89.30
2022-12-28T09:30:00.898Z,89.30
2022-12-28T09:31:02.599Z,89.30
2022-12-28T09:32:00.346Z,89.30
2022-12-28T09:33:00.383Z,89.39
2022-12-28T09:34:35.548Z,89.39
2022-12-28T09:35:00.323Z,89.39
2022-12-28T09:36:00.346Z,89.39
2022-12-28T09:37:00.889Z,89.39
2022-12-28T09:38:00.340Z,89.18
2022-12-28T09:39:01.704Z,89.18
2022-12-28T09:40:01.696Z,89.18
2022-12-28T09:41:00.336Z,89.18
2022-12-28T09:42:01.342Z,89.18
2022-12-28T09:43:00.596Z,89.36
2022-12-28T09:44:05.788Z,89.36
2022-12-28T09:45:03.994Z,89.36
2022-12-28T09:46:00.369Z,89.36
2022-12-28T09:47:05.205Z,89.36
2022-12-28T09:48:05.599Z,89.55
2022-12-28T09:49:01.015Z,89.55
2022-12-28T09:50:00.327Z,89.55
2022-12-28T09:51:00.346Z,89.55
2022-12-28T09:52:05.535Z,89.55
2022-12-28T09:53:10.244Z,89.56
2022-12-28T09:54:02.242Z,89.56
2022-12-28T09:55:05.083Z,89.56
2022-12-28T09:56:04.013Z,89.56
2022-12-28T09:57:00.366Z,89.56
2022-12-28T09:58:02.210Z,89.29
2022-12-28T09:59:01.477Z,89.29
2022-12-28T10:00:00.450Z,89.29
2022-12-28T10:01:01.671Z,89.29
2022-12-28T10:02:02.421Z,89.29
2022-12-28T10:03:02.473Z,89.53
2022-12-28T10:04:00.553Z,89.53
2022-12-28T10:05:00.589Z,89.53
2022-12-28T10:06:01.433Z,89.53
2022-12-28T10:07:00.785Z,89.53
2022-12-28T10:08:00.474Z,89.66
2022-12-28T10:09:01.343Z,89.66
2022-12-28T10:10:00.360Z,89.66
2022-12-28T10:11:01.139Z,89.66
2022-12-28T10:12:10.247Z,89.66
2022-12-28T10:13:37.076Z,89.65
2022-12-28T10:14:01.662Z,89.65
2022-12-28T10:15:00.348Z,89.65
2022-12-28T10:16:00.494Z,89.65
2022-12-28T10:17:00.649Z,89.65
2022-12-28T10:18:00.343Z,90.06
2022-12-28T10:19:00.391Z,90.06
2022-12-28T10:20:00.338Z,90.06
2022-12-28T10:21:00.426Z,90.06
2022-12-28T10:22:01.654Z,90.06
2022-12-28T10:23:01.265Z,90.11
2022-12-28T10:24:32.397Z,90.11
2022-12-28T10:25:00.381Z,90.11
2022-12-28T10:26:00.846Z,90.11
2022-12-28T10:27:04.000Z,90.11
2022-12-28T10:28:01.135Z,89.90
2022-12-28T10:29:00.371Z,89.90
2022-12-28T10:30:01.395Z,89.90
2022-12-28T10:31:03.941Z,89.90
2022-12-28T10:32:02.826Z,89.90
2022-12-28T10:33:02.956Z,90.04
2022-12-28T10:34:00.497Z,90.04
2022-12-28T10:35:01.001Z,90.04
2022-12-28T10:36:00.423Z,90.04
2022-12-28T10:37:14.750Z,90.04
2022-12-28T10:38:02.867Z,90.17
2022-12-28T10:39:00.595Z,90.17
2022-12-28T10:40:06.673Z,90.17
2022-12-28T10:41:05.380Z,90.17
2022-12-28T10:42:01.005Z,90.17
2022-12-28T10:43:04.152Z,89.87
2022-12-28T10:44:38.521Z,89.87
2022-12-28T10:45:03.756Z,89.87
2022-12-28T10:46:02.875Z,89.87
2022-12-28T10:47:00.400Z,89.87
2022-12-28T10:48:01.316Z,89.80
2022-12-28T10:49:00.850Z,89.80
2022-12-28T10:50:37.291Z,89.80
2022-12-28T10:51:10.187Z,89.80
2022-12-28T10:52:02.285Z,89.80
2022-12-28T10:53:00.361Z,89.99
2022-12-28T10:54:00.353Z,89.99
2022-12-28T10:55:08.093Z,89.99
2022-12-28T10:56:02.067Z,89.99
2022-12-28T10:57:00.917Z,89.99
2022-12-28T10:59:10.253Z,89.87
2022-12-28T11:00:10.256Z,89.87
2022-12-28T11:01:03.796Z,89.87
2022-12-28T11:02:10.484Z,89.87
2022-12-28T11:03:10.301Z,89.67
2022-12-28T11:03:22.054Z,89.87
2022-12-28T11:04:02.123Z,89.67
2022-12-28T11:05:01.961Z,89.67
2022-12-28T11:06:07.876Z,89.67
2022-12-28T11:07:00.958Z,89.67
2022-12-28T11:08:04.643Z,89.72
2022-12-28T11:09:03.379Z,89.72
2022-12-28T11:10:10.263Z,89.72
2022-12-28T11:11:00.828Z,89.72
2022-12-28T11:12:10.251Z,89.72
2022-12-28T11:13:00.465Z,89.70
2022-12-28T11:14:04.180Z,89.70
2022-12-28T11:15:00.359Z,89.70
2022-12-28T11:16:00.453Z,89.70
2022-12-28T11:17:10.249Z,89.70
2022-12-28T11:18:10.254Z,89.50
2022-12-28T11:19:00.332Z,89.50
2022-12-28T11:20:05.801Z,89.50
2022-12-28T11:21:00.454Z,89.50
2022-12-28T11:22:00.334Z,89.50
2022-12-28T11:23:03.707Z,89.33
2022-12-28T11:24:00.401Z,89.33
2022-12-28T11:25:00.726Z,89.33
2022-12-28T11:26:00.405Z,89.33
2022-12-28T11:27:01.987Z,89.33
2022-12-28T11:28:04.109Z,89.37
2022-12-28T11:29:00.712Z,89.37
2022-12-28T11:30:01.575Z,89.37
2022-12-28T11:31:00.807Z,89.37
2022-12-28T11:32:04.468Z,89.37
2022-12-28T11:33:01.273Z,89.54
2022-12-28T11:34:02.468Z,89.54
2022-12-28T11:35:00.474Z,89.54
2022-12-28T11:36:02.495Z,89.54
2022-12-28T11:37:00.402Z,89.54
2022-12-28T11:38:01.418Z,89.43
2022-12-28T11:39:10.253Z,89.43
2022-12-28T11:40:00.356Z,89.43
2022-12-28T11:41:00.343Z,89.43
2022-12-28T11:42:37.056Z,89.43
2022-12-28T11:43:00.382Z,89.33
2022-12-28T11:44:01.021Z,89.33
2022-12-28T11:45:04.684Z,89.33
2022-12-28T11:46:01.397Z,89.33
2022-12-28T11:47:06.597Z,89.33
2022-12-28T11:48:10.259Z,89.08
2022-12-28T11:49:00.334Z,89.08
2022-12-28T11:50:10.244Z,89.08
2022-12-28T11:51:03.739Z,89.08
2022-12-28T11:52:10.264Z,89.08
2022-12-28T11:53:01.330Z,89.34
2022-12-28T11:54:02.881Z,89.34
2022-12-28T11:55:10.262Z,89.34
2022-12-28T11:56:02.601Z,89.34
2022-12-28T11:57:00.340Z,89.34
2022-12-28T11:58:10.262Z,89.19
2022-12-28T11:59:02.776Z,89.19
2022-12-28T12:00:10.253Z,89.19
2022-12-28T12:01:00.472Z,89.19
2022-12-28T12:02:01.089Z,89.19
2022-12-28T12:03:00.581Z,88.87
2022-12-28T12:04:00.347Z,88.87
2022-12-28T12:05:10.245Z,88.87
2022-12-28T12:06:00.397Z,88.87
2022-12-28T12:07:00.357Z,88.87
2022-12-28T12:08:00.637Z,88.68
2022-12-28T12:09:00.428Z,88.68
2022-12-28T12:10:10.248Z,88.68
2022-12-28T12:11:10.244Z,88.68
2022-12-28T12:12:01.796Z,88.68
2022-12-28T12:13:01.914Z,89.10
2022-12-28T12:14:00.562Z,89.10
2022-12-28T12:15:02.473Z,89.10
2022-12-28T12:16:02.076Z,89.10
2022-12-28T12:17:04.214Z,89.10
2022-12-28T12:18:04.788Z,89.07
2022-12-28T12:19:02.031Z,89.07
2022-12-28T12:20:04.113Z,89.07
2022-12-28T12:21:06.797Z,89.07
2022-12-28T12:22:05.556Z,89.07
2022-12-28T12:23:04.362Z,88.79
2022-12-28T12:24:02.803Z,88.79
2022-12-28T12:25:01.334Z,88.79
2022-12-28T12:26:10.273Z,88.79
2022-12-28T12:27:04.081Z,88.79
2022-12-28T12:28:05.154Z,89.29
2022-12-28T12:29:10.265Z,89.29
2022-12-28T12:30:03.772Z,89.29
2022-12-28T12:31:03.410Z,89.29
2022-12-28T12:32:06.520Z,89.29
2022-12-28T12:33:02.878Z,89.21
2022-12-28T12:34:13.313Z,89.21
2022-12-28T12:35:02.484Z,89.21
2022-12-28T12:36:01.342Z,89.21
2022-12-28T12:37:10.306Z,89.21
2022-12-28T12:38:01.356Z,88.91
2022-12-28T12:39:10.254Z,88.91
2022-12-28T12:40:01.339Z,88.91
2022-12-28T12:41:10.259Z,88.91
2022-12-28T12:42:10.271Z,88.91
2022-12-28T12:43:10.261Z,88.75
2022-12-28T12:44:10.255Z,88.75
2022-12-28T12:45:10.251Z,88.75
2022-12-28T12:46:10.285Z,88.75
2022-12-28T12:47:10.256Z,88.75
2022-12-28T12:48:01.344Z,88.41
2022-12-28T12:49:00.331Z,88.41
2022-12-28T12:50:01.335Z,88.41
2022-12-28T12:51:06.974Z,88.41
2022-12-28T12:52:03.605Z,88.41
2022-12-28T12:53:04.682Z,88.76
2022-12-28T12:54:07.685Z,88.76